createdAt,value
2023-03-08T00:04:23.379Z,6.22
2023-03-08T00:09:24.316Z,7.05
2023-03-08T00:14:25.572Z,10.70
2023-03-08T00:19:26.580Z,10.15
2023-03-08T00:24:27.352Z,8.82
2023-03-08T00:29:28.367Z,9.07
2023-03-08T00:34:30.524Z,26.07
2023-03-08T00:39:31.319Z,8.32
2023-03-08T00:44:32.102Z,8.23
2023-03-08T00:49:32.974Z,8.27
2023-03-08T00:54:34.068Z,8.82
2023-03-08T00:59:35.082Z,8.63
2023-03-08T01:04:36.079Z,10.45
2023-03-08T01:09:36.856Z,9.40
2023-03-08T01:14:38.254Z,11.63
2023-03-08T01:19:40.829Z,11.18
2023-03-08T01:24:45.538Z,15.32
2023-03-08T01:29:46.430Z,11.15
2023-03-08T01:34:47.458Z,13.45
2023-03-08T01:39:48.232Z,17.40
2023-03-08T01:44:55.896Z,18.00
2023-03-08T01:50:09.938Z,14.60
2023-03-08T01:55:14.271Z,17.87
2023-03-08T02:00:18.908Z,26.00
2023-03-08T02:05:22.642Z,21.02
2023-03-08T02:10:25.365Z,22.83
2023-03-08T02:15:27.664Z,22.90
2023-03-08T02:25:41.445Z,21.02
2023-03-08T02:30:42.289Z,21.20
2023-03-08T02:35:43.513Z,20.52
2023-03-08T02:40:46.085Z,21.67
2023-03-08T02:45:47.568Z,21.50
2023-03-08T02:50:48.489Z,25.12
2023-03-08T02:55:49.394Z,22.65
2023-03-08T03:00:50.326Z,24.23
2023-03-08T03:05:52.038Z,22.48
2023-03-08T03:10:57.935Z,21.58
2023-03-08T03:15:58.756Z,21.85
2023-03-08T03:21:08.527Z,20.83
2023-03-08T03:26:12.437Z,24.60
2023-03-08T03:31:16.160Z,23.35
2023-03-08T03:36:19.986Z,25.55
2023-03-08T03:41:22.593Z,25.15
2023-03-08T03:46:26.706Z,25.75
2023-03-08T03:51:28.553Z,24.40
2023-03-08T03:56:39.792Z,24.52
2023-03-08T04:01:41.233Z,28.70
2023-03-08T04:06:53.192Z,28.77
2023-03-08T04:16:57.527Z,30.65
2023-03-08T04:22:04.107Z,33.85
2023-03-08T04:27:10.396Z,37.28
2023-03-08T04:32:11.269Z,31.30
2023-03-08T04:37:19.062Z,27.90
2023-03-08T04:47:22.918Z,33.72
2023-03-08T04:52:24.076Z,36.03
2023-03-08T04:57:25.986Z,35.63
2023-03-08T05:02:28.799Z,41.45
2023-03-08T05:07:30.354Z,39.45
2023-03-08T05:12:31.922Z,41.65
2023-03-08T05:17:33.973Z,38.78
2023-03-08T05:22:48.098Z,33.60
2023-03-08T05:27:57.516Z,39.60
2023-03-08T05:32:59.277Z,37.40
2023-03-08T05:38:00.136Z,34.15
2023-03-08T05:43:01.845Z,42.35
2023-03-08T05:48:03.726Z,38.95
2023-03-08T05:53:06.516Z,42.85
2023-03-08T05:58:07.429Z,40.35
2023-03-08T06:03:08.602Z,37.92
2023-03-08T06:08:10.353Z,33.13
2023-03-08T06:13:12.480Z,44.10
2023-03-08T06:18:13.623Z,37.45
2023-03-08T06:23:15.319Z,33.65
2023-03-08T06:28:16.425Z,38.28
2023-03-08T06:33:19.315Z,36.50
2023-03-08T06:38:20.263Z,37.55
2023-03-08T06:43:21.420Z,33.60
2023-03-08T06:48:23.214Z,37.83
2023-03-08T06:53:24.651Z,34.47
2023-03-08T06:58:34.838Z,38.42
2023-03-08T07:03:36.230Z,34.13
2023-03-08T07:08:38.623Z,37.97
2023-03-08T07:13:39.683Z,40.70
2023-03-08T07:18:41.627Z,40.45
2023-03-08T07:23:42.764Z,33.67
2023-03-08T07:28:43.889Z,52.28
2023-03-08T07:33:45.021Z,54.47
2023-03-08T07:38:46.489Z,52.58
2023-03-08T07:43:47.318Z,59.58
2023-03-08T07:48:55.138Z,54.40
2023-03-08T07:53:56.298Z,54.78
2023-03-08T07:58:57.143Z,46.53
2023-03-08T08:03:59.137Z,52.42
2023-03-08T08:08:59.981Z,78.55
2023-03-08T08:14:01.431Z,206.32
2023-03-08T08:19:02.328Z,68.15
2023-03-08T08:24:03.295Z,46.30
2023-03-08T08:29:04.845Z,38.47
2023-03-08T08:34:05.697Z,42.42
2023-03-08T08:39:06.724Z,138.60
2023-03-08T08:44:07.756Z,81.47
2023-03-08T08:49:10.123Z,49.38
2023-03-08T08:54:11.232Z,129.27
2023-03-08T08:59:13.039Z,109.32
2023-03-08T09:04:16.029Z,26.85
2023-03-08T09:14:17.952Z,24.73
2023-03-08T09:19:18.946Z,29.08
2023-03-08T09:24:20.122Z,34.13
2023-03-08T09:29:20.878Z,31.48
2023-03-08T09:34:21.785Z,25.88
2023-03-08T09:39:22.592Z,28.58
2023-03-08T09:45:27.477Z,29.58
2023-03-08T09:51:13.165Z,21.77
2023-03-08T09:56:30.998Z,19.23
2023-03-08T10:02:26.830Z,20.08
2023-03-08T10:07:46.949Z,14.90
2023-03-08T10:14:18.181Z,19.15
2023-03-08T10:19:32.502Z,20.00
2023-03-08T10:24:45.049Z,17.70
2023-03-08T10:29:57.672Z,18.00
2023-03-08T10:35:04.181Z,17.37
2023-03-08T10:40:21.160Z,20.98
2023-03-08T10:45:23.439Z,23.27
2023-03-08T10:50:34.686Z,19.00
2023-03-08T10:55:44.609Z,20.25
2023-03-08T11:00:53.730Z,29.30
2023-03-08T11:06:02.951Z,22.13
2023-03-08T11:11:12.848Z,27.23
2023-03-08T11:20:46.449Z,20.58
2023-03-08T11:26:32.283Z,20.62
2023-03-08T11:32:28.576Z,18.42
2023-03-08T11:37:40.315Z,13.60
2023-03-08T11:43:04.348Z,15.20
2023-03-08T11:48:30.169Z,15.30
2023-03-08T11:59:01.686Z,13.20
2023-03-08T12:05:35.111Z,15.02
2023-03-08T12:12:20.210Z,16.95
2023-03-08T12:17:26.723Z,13.85
2023-03-08T12:22:53.914Z,14.52
2023-03-08T12:28:19.917Z,12.00
2023-03-08T12:33:21.991Z,12.37
2023-03-08T12:38:40.201Z,12.87
2023-03-08T12:43:41.047Z,9.93
2023-03-08T12:48:50.722Z,8.00
2023-03-08T12:53:58.989Z,13.23
2023-03-08T13:00:05.904Z,10.23
2023-03-08T13:05:19.484Z,10.88
2023-03-08T13:10:25.605Z,9.98
2023-03-08T13:15:26.594Z,11.93
2023-03-08T13:20:48.434Z,11.65
2023-03-08T13:27:38.905Z,9.15
2023-03-08T13:32:40.127Z,7.93
2023-03-08T13:37:41.129Z,8.00
2023-03-08T13:43:04.876Z,7.65
2023-03-08T13:48:08.391Z,12.02
2023-03-08T13:56:41.632Z,11.40
2023-03-08T14:01:48.025Z,10.20
2023-03-08T14:06:55.635Z,15.45
2023-03-08T14:12:04.872Z,11.43
2023-03-08T14:17:06.258Z,9.02
2023-03-08T14:22:21.226Z,9.35
2023-03-08T14:27:40.818Z,8.43
2023-03-08T14:32:56.240Z,3.85
2023-03-08T14:37:58.201Z,4.60
2023-03-08T14:43:13.157Z,4.95
2023-03-08T14:48:34.569Z,7.70
2023-03-08T14:53:38.663Z,6.32
2023-03-08T14:58:49.776Z,9.82
2023-03-08T15:03:50.696Z,7.20
2023-03-08T15:08:54.183Z,10.50
2023-03-08T15:13:54.977Z,8.00
2023-03-08T15:18:55.899Z,8.40
2023-03-08T15:23:57.683Z,6.85
2023-03-08T15:29:02.504Z,5.97
2023-03-08T15:34:03.259Z,10.40
2023-03-08T15:39:04.160Z,6.25
2023-03-08T15:44:05.870Z,4.82
2023-03-08T15:49:07.782Z,8.35
2023-03-08T15:54:10.047Z,8.60
2023-03-08T15:59:10.813Z,4.53
2023-03-08T16:04:11.659Z,6.82
2023-03-08T16:09:12.423Z,6.93
2023-03-08T16:14:17.057Z,6.75
2023-03-08T16:19:17.927Z,6.05
2023-03-08T16:24:18.770Z,4.80
2023-03-08T16:29:20.189Z,9.82
2023-03-08T16:34:21.465Z,5.68
2023-03-08T16:39:23.580Z,9.48
2023-03-08T16:44:27.416Z,6.40
2023-03-08T16:49:28.700Z,6.18
2023-03-08T16:54:30.463Z,8.68
2023-03-08T16:59:31.237Z,9.95
2023-03-08T17:04:32.033Z,8.20
2023-03-08T17:09:34.159Z,11.15
2023-03-08T17:14:35.998Z,55.55
2023-03-08T17:19:38.726Z,8.32
2023-03-08T17:24:40.651Z,15.43
2023-03-08T17:29:41.448Z,6.78
2023-03-08T17:34:42.222Z,4.35
2023-03-08T17:39:43.028Z,5.27
2023-03-08T17:44:44.024Z,10.88
2023-03-08T17:49:45.162Z,7.15
2023-03-08T17:54:47.896Z,8.25
2023-03-08T17:59:49.842Z,6.32
2023-03-08T18:04:51.109Z,6.75
2023-03-08T18:09:51.913Z,3.70
2023-03-08T18:14:52.942Z,2.60
2023-03-08T18:19:53.897Z,8.43
2023-03-08T18:24:54.763Z,6.30
2023-03-08T18:29:55.698Z,4.57
2023-03-08T18:34:56.752Z,6.25
2023-03-08T18:39:57.934Z,13.05
2023-03-08T18:44:58.698Z,16.60
2023-03-08T18:49:59.665Z,15.25
2023-03-08T18:55:01.163Z,12.90
2023-03-08T19:00:05.309Z,6.28
2023-03-08T19:05:06.700Z,19.17
2023-03-08T19:10:08.654Z,129.27
2023-03-08T19:15:10.553Z,72.85
2023-03-08T19:20:11.924Z,21.52
2023-03-08T19:25:15.105Z,5.30
2023-03-08T19:35:17.094Z,10.77
2023-03-08T19:40:18.108Z,4.60
2023-03-08T19:45:18.892Z,2.62
2023-03-08T19:50:19.832Z,4.22
2023-03-08T19:55:20.673Z,4.82
2023-03-08T20:00:21.769Z,4.78
2023-03-08T20:05:22.711Z,8.80
2023-03-08T20:10:23.571Z,6.12
2023-03-08T20:15:24.469Z,5.87
2023-03-08T20:20:25.352Z,7.45
2023-03-08T20:25:26.261Z,12.27
2023-03-08T20:30:30.714Z,31.60
2023-03-08T20:35:31.512Z,10.98
2023-03-08T20:40:32.332Z,5.87
2023-03-08T20:45:33.138Z,2.08
2023-03-08T20:50:34.089Z,4.15
2023-03-08T20:55:37.951Z,5.00
2023-03-08T21:00:41.327Z,11.98
2023-03-08T21:05:42.498Z,15.65
2023-03-08T21:10:43.257Z,10.40
2023-03-08T21:15:44.243Z,3.78
2023-03-08T21:20:45.114Z,6.05
2023-03-08T21:25:46.417Z,9.57
2023-03-08T21:30:47.466Z,4.25
2023-03-08T21:35:48.378Z,11.57
2023-03-08T21:40:49.144Z,13.00
2023-03-08T21:45:50.020Z,6.15
2023-03-08T21:50:50.914Z,10.55
2023-03-08T21:55:51.709Z,6.62
2023-03-08T22:00:53.344Z,8.60
2023-03-08T22:05:54.154Z,33.47
2023-03-08T22:10:54.985Z,7.43
2023-03-08T22:15:55.873Z,7.53
2023-03-08T22:20:57.027Z,6.78
2023-03-08T22:25:57.914Z,6.43
2023-03-08T22:30:58.684Z,5.90
2023-03-08T22:35:59.539Z,8.73
2023-03-08T22:41:00.314Z,8.02
2023-03-08T22:46:07.347Z,8.90
2023-03-08T22:51:11.423Z,13.55
2023-03-08T22:56:29.338Z,9.45
2023-03-08T23:01:32.182Z,15.27
2023-03-08T23:06:33.668Z,12.10
2023-03-08T23:11:36.049Z,10.60
2023-03-08T23:16:41.195Z,11.47
2023-03-08T23:21:43.709Z,10.25
2023-03-08T23:26:45.429Z,9.80
2023-03-08T23:31:46.312Z,9.43
2023-03-08T23:36:47.118Z,12.23
2023-03-08T23:41:47.910Z,14.48
2023-03-08T23:46:48.686Z,11.52
2023-03-08T23:51:49.650Z,12.57
2023-03-08T23:56:50.444Z,13.93
